Time;durP1;ratioP1;P1;durP2;ratioP2;P2;SDS_P1;SDS_P2;PMS_P1;PMS_P2;Temp;Humidity;BMP_temperature;BMP_pressure;BME280_temperature;BME280_humidity;BME280_pressure;Samples;Min_cycle;Max_cycle;Signal;HPM_P1;HPM_P2
2023/12/16 00:02:25;;;;;;;20.23;10.55;;;;;;;;;;5072632;28;20048;-67
2023/12/16 00:04:51;;;;;;;14.60;9.90;;;;;;;;;;5073578;28;20045;-67
2023/12/16 00:07:18;;;;;;;17.83;9.57;;;;;;;;;;5069783;28;20226;-68
2023/12/16 00:09:44;;;;;;;15.88;9.82;;;;;;;;;;5073468;28;20051;-68
2023/12/16 00:12:11;;;;;;;15.55;9.32;;;;;;;;;;5072636;28;20048;-67
2023/12/16 00:14:37;;;;;;;20.15;8.43;;;;;;;;;;5072666;28;20136;-67
2023/12/16 00:17:05;;;;;;;15.85;9.00;;;;;;;;;;5073428;28;20609;-67
2023/12/16 00:19:32;;;;;;;16.35;8.25;;;;;;;;;;5073267;28;20643;-68
2023/12/16 00:21:58;;;;;;;14.50;8.45;;;;;;;;;;5072714;28;20054;-68
2023/12/16 00:24:25;;;;;;;12.82;8.60;;;;;;;;;;5073050;28;20047;-67
2023/12/16 00:26:53;;;;;;;13.07;8.95;;;;;;;;;;5072741;28;20414;-67
2023/12/16 00:29:20;;;;;;;14.43;8.60;;;;;;;;;;5073161;28;20047;-68
2023/12/16 00:31:46;;;;;;;15.10;8.48;;;;;;;;;;5072676;28;20283;-67
2023/12/16 00:34:14;;;;;;;15.00;8.65;;;;;;;;;;5072586;28;20522;-67
2023/12/16 00:36:41;;;;;;;13.02;8.68;;;;;;;;;;5069899;28;20053;-67
2023/12/16 00:39:09;;;;;;;15.77;9.48;;;;;;;;;;5071615;28;20052;-67
2023/12/16 00:41:35;;;;;;;15.45;8.93;;;;;;;;;;5072648;28;20066;-67
2023/12/16 00:44:02;;;;;;;17.20;9.50;;;;;;;;;;5072911;28;20547;-67
2023/12/16 00:46:29;;;;;;;16.27;8.90;;;;;;;;;;5072529;28;20040;-67
2023/12/16 00:48:55;;;;;;;14.63;8.85;;;;;;;;;;5072659;28;20048;-67
2023/12/16 00:51:23;;;;;;;15.20;9.20;;;;;;;;;;5071849;28;20044;-68
2023/12/16 00:53:50;;;;;;;14.25;8.45;;;;;;;;;;5068283;28;20047;-68
2023/12/16 00:56:16;;;;;;;13.93;8.02;;;;;;;;;;5072307;28;20131;-67
2023/12/16 00:58:43;;;;;;;11.95;7.97;;;;;;;;;;5072519;28;20052;-67
2023/12/16 01:01:10;;;;;;;13.10;8.13;;;;;;;;;;5072134;28;20052;-67
2023/12/16 01:03:37;;;;;;;13.10;7.82;;;;;;;;;;5072364;28;20048;-68
2023/12/16 01:06:04;;;;;;;12.75;7.45;;;;;;;;;;5067771;28;20052;-67
2023/12/16 01:08:33;;;;;;;13.32;7.50;;;;;;;;;;5071977;28;20048;-67
2023/12/16 01:11:00;;;;;;;12.90;6.95;;;;;;;;;;5068601;28;20490;-67
2023/12/16 01:13:26;;;;;;;12.48;6.95;;;;;;;;;;5071919;28;20045;-67
2023/12/16 01:15:53;;;;;;;11.68;6.22;;;;;;;;;;5072080;28;20496;-67
2023/12/16 01:18:19;;;;;;;12.80;6.32;;;;;;;;;;5071745;28;20465;-67
2023/12/16 01:20:46;;;;;;;11.45;6.53;;;;;;;;;;5071429;28;20044;-68
2023/12/16 01:23:13;;;;;;;9.65;6.25;;;;;;;;;;5071958;28;20053;-68
2023/12/16 01:25:40;;;;;;;10.82;6.32;;;;;;;;;;5071683;28;20045;-67
2023/12/16 01:28:07;;;;;;;9.68;6.57;;;;;;;;;;5071867;28;20045;-68
2023/12/16 01:30:33;;;;;;;10.35;5.85;;;;;;;;;;5071513;28;20247;-67
2023/12/16 01:33:00;;;;;;;10.55;6.07;;;;;;;;;;5072024;28;20044;-67
2023/12/16 01:38:41;;;;;;;10.52;5.82;;;;;;;;;;5059384;28;20472;-67
2023/12/16 01:41:10;;;;;;;10.60;6.10;;;;;;;;;;5072465;28;20049;-67
2023/12/16 01:43:36;;;;;;;10.70;6.15;;;;;;;;;;5071529;28;20503;-67
2023/12/16 01:49:21;;;;;;;12.15;6.43;;;;;;;;;;5048976;28;20088;-67
2023/12/16 01:51:48;;;;;;;11.85;6.53;;;;;;;;;;5070944;28;20079;-67
2023/12/16 01:54:15;;;;;;;13.50;8.07;;;;;;;;;;5071319;28;20495;-68
2023/12/16 01:56:52;;;;;;;14.57;8.30;;;;;;;;;;5071270;28;20061;-67
2023/12/16 01:59:20;;;;;;;14.60;7.78;;;;;;;;;;5068110;28;20052;-67
2023/12/16 02:01:47;;;;;;;19.52;8.35;;;;;;;;;;5070830;28;20140;-67
2023/12/16 02:04:14;;;;;;;13.98;7.93;;;;;;;;;;5071208;28;20047;-67
2023/12/16 02:06:41;;;;;;;13.90;7.88;;;;;;;;;;5069831;28;20063;-67
2023/12/16 02:09:08;;;;;;;15.10;7.78;;;;;;;;;;5066848;28;20101;-68
2023/12/16 02:11:34;;;;;;;13.65;7.85;;;;;;;;;;5070576;28;20056;-67
2023/12/16 02:14:02;;;;;;;15.30;7.88;;;;;;;;;;5071244;28;20040;-67
2023/12/16 02:16:29;;;;;;;11.70;7.20;;;;;;;;;;5070714;28;20044;-67
2023/12/16 02:18:55;;;;;;;16.40;8.23;;;;;;;;;;5071035;28;20046;-67
2023/12/16 02:21:22;;;;;;;12.65;7.22;;;;;;;;;;5070367;28;20074;-68
2023/12/16 02:23:50;;;;;;;12.52;8.30;;;;;;;;;;5071371;28;20504;-67
2023/12/16 02:26:16;;;;;;;13.02;7.55;;;;;;;;;;5071200;28;20040;-67
2023/12/16 02:28:43;;;;;;;13.65;7.50;;;;;;;;;;5066233;28;20044;-67
2023/12/16 02:31:09;;;;;;;12.23;6.70;;;;;;;;;;5070702;28;20131;-68
2023/12/16 02:33:36;;;;;;;13.90;7.55;;;;;;;;;;5070782;28;20048;-68
2023/12/16 02:36:03;;;;;;;13.70;7.72;;;;;;;;;;5070831;28;20048;-68
2023/12/16 02:38:30;;;;;;;12.77;7.22;;;;;;;;;;5070981;28;20048;-67
2023/12/16 02:40:57;;;;;;;11.48;7.18;;;;;;;;;;5070731;28;20131;-67
2023/12/16 02:43:24;;;;;;;11.85;7.05;;;;;;;;;;5067235;28;20045;-67
2023/12/16 02:45:51;;;;;;;10.70;7.68;;;;;;;;;;5070792;28;20045;-67
2023/12/16 02:48:17;;;;;;;11.75;7.00;;;;;;;;;;5067220;28;20051;-67
2023/12/16 02:50:44;;;;;;;12.57;6.68;;;;;;;;;;5070723;28;20304;-67
2023/12/16 02:53:10;;;;;;;10.43;6.55;;;;;;;;;;5070371;28;20056;-68
2023/12/16 02:55:37;;;;;;;11.40;5.97;;;;;;;;;;5070594;28;20123;-68
2023/12/16 02:58:05;;;;;;;11.13;6.00;;;;;;;;;;5070087;28;20055;-67
2023/12/16 03:00:31;;;;;;;13.68;6.57;;;;;;;;;;5069942;28;20055;-67
2023/12/16 03:02:58;;;;;;;9.65;6.32;;;;;;;;;;5070183;28;20075;-67
2023/12/16 03:05:24;;;;;;;10.18;6.10;;;;;;;;;;5070561;28;20128;-67
2023/12/16 03:07:51;;;;;;;11.45;5.90;;;;;;;;;;5070867;28;20416;-67
2023/12/16 03:10:18;;;;;;;12.80;5.95;;;;;;;;;;5070719;28;20475;-67
2023/12/16 03:12:46;;;;;;;8.68;5.78;;;;;;;;;;5070123;28;20044;-68
2023/12/16 03:15:14;;;;;;;10.10;5.97;;;;;;;;;;5070842;28;20055;-67
2023/12/16 03:17:40;;;;;;;9.88;6.15;;;;;;;;;;5066300;28;20418;-67
2023/12/16 03:20:08;;;;;;;11.70;5.82;;;;;;;;;;5070826;28;20422;-67
2023/12/16 03:22:35;;;;;;;9.38;6.25;;;;;;;;;;5070321;28;20048;-67
2023/12/16 03:25:01;;;;;;;8.88;5.85;;;;;;;;;;5070434;28;20044;-67
2023/12/16 03:27:28;;;;;;;10.55;6.60;;;;;;;;;;5070236;28;20059;-67
2023/12/16 03:29:55;;;;;;;11.02;6.03;;;;;;;;;;5070417;28;20045;-68
2023/12/16 03:32:22;;;;;;;10.18;5.80;;;;;;;;;;5069746;28;20044;-68
2023/12/16 03:34:49;;;;;;;11.65;6.13;;;;;;;;;;5066414;28;20044;-67
2023/12/16 03:37:16;;;;;;;9.43;5.85;;;;;;;;;;5070355;28;20047;-67
2023/12/16 03:39:42;;;;;;;9.13;5.50;;;;;;;;;;5070431;28;20186;-67
2023/12/16 03:42:09;;;;;;;9.93;5.53;;;;;;;;;;5070442;28;20139;-67
2023/12/16 03:44:35;;;;;;;9.20;5.13;;;;;;;;;;5073695;28;20040;-67
2023/12/16 03:47:02;;;;;;;9.80;4.88;;;;;;;;;;5074104;28;20048;-67
2023/12/16 03:49:30;;;;;;;7.10;4.93;;;;;;;;;;5073039;28;20049;-67
2023/12/16 03:51:56;;;;;;;8.50;4.80;;;;;;;;;;5070257;28;20048;-67
2023/12/16 03:54:23;;;;;;;10.63;5.38;;;;;;;;;;5072990;28;20047;-67
2023/12/16 03:56:49;;;;;;;8.98;4.70;;;;;;;;;;5073600;28;20055;-67
2023/12/16 03:59:16;;;;;;;9.05;4.90;;;;;;;;;;5073413;28;20056;-67
2023/12/16 04:01:45;;;;;;;7.72;5.15;;;;;;;;;;5068602;28;20075;-67
2023/12/16 04:04:11;;;;;;;10.27;5.20;;;;;;;;;;5073713;28;20048;-67
2023/12/16 04:06:39;;;;;;;8.73;5.40;;;;;;;;;;5073704;28;20055;-67
2023/12/16 04:09:06;;;;;;;11.55;5.40;;;;;;;;;;5073522;28;20044;-67
2023/12/16 04:11:32;;;;;;;10.30;5.68;;;;;;;;;;5072983;28;20561;-67
2023/12/16 04:13:59;;;;;;;9.57;5.45;;;;;;;;;;5073171;28;20048;-67
2023/12/16 04:16:26;;;;;;;7.93;4.88;;;;;;;;;;5072672;28;20084;-67
2023/12/16 04:18:52;;;;;;;8.38;4.90;;;;;;;;;;5073473;28;20044;-68
2023/12/16 04:21:19;;;;;;;6.47;5.13;;;;;;;;;;5069701;28;20047;-67
2023/12/16 04:23:47;;;;;;;10.63;4.90;;;;;;;;;;5073361;28;20367;-68
2023/12/16 04:26:13;;;;;;;7.82;4.88;;;;;;;;;;5073036;28;20056;-67
2023/12/16 04:28:40;;;;;;;8.68;5.10;;;;;;;;;;5072938;28;20428;-67
2023/12/16 04:31:06;;;;;;;11.10;5.57;;;;;;;;;;5072854;28;20492;-67
2023/12/16 04:33:33;;;;;;;10.25;5.05;;;;;;;;;;5067995;28;20044;-67
2023/12/16 04:36:00;;;;;;;9.88;5.60;;;;;;;;;;5070424;28;20044;-67
2023/12/16 04:38:26;;;;;;;8.68;5.53;;;;;;;;;;5072714;28;20048;-67
2023/12/16 04:40:54;;;;;;;8.50;5.28;;;;;;;;;;5072460;28;20045;-67
2023/12/16 04:43:21;;;;;;;10.68;5.63;;;;;;;;;;5072859;28;20056;-67
2023/12/16 04:45:47;;;;;;;12.70;5.72;;;;;;;;;;5068474;28;20051;-67
2023/12/16 04:48:14;;;;;;;12.23;6.60;;;;;;;;;;5072793;28;20051;-67
2023/12/16 04:50:41;;;;;;;9.63;5.97;;;;;;;;;;5068840;28;20041;-67
2023/12/16 04:53:07;;;;;;;13.23;5.32;;;;;;;;;;5072329;28;20532;-67
2023/12/16 04:55:34;;;;;;;12.82;6.82;;;;;;;;;;5071582;28;20051;-67
2023/12/16 04:58:03;;;;;;;12.80;6.43;;;;;;;;;;5072416;28;20468;-67
2023/12/16 05:00:30;;;;;;;15.05;6.65;;;;;;;;;;5072299;28;20300;-68
2023/12/16 05:02:57;;;;;;;10.85;6.55;;;;;;;;;;5072320;28;20049;-67
2023/12/16 05:05:23;;;;;;;16.33;5.68;;;;;;;;;;5072055;28;20040;-67
2023/12/16 05:07:50;;;;;;;11.68;6.10;;;;;;;;;;5072366;28;20050;-67
2023/12/16 05:10:16;;;;;;;9.15;6.10;;;;;;;;;;5072187;28;20488;-67
2023/12/16 05:12:43;;;;;;;10.88;6.55;;;;;;;;;;5071872;28;20040;-67
2023/12/16 05:15:11;;;;;;;11.77;6.78;;;;;;;;;;5072277;28;20044;-67
2023/12/16 05:17:38;;;;;;;8.73;5.60;;;;;;;;;;5072014;28;20499;-67
2023/12/16 05:20:06;;;;;;;11.80;5.35;;;;;;;;;;5072108;28;20052;-67
2023/12/16 05:22:33;;;;;;;10.23;5.68;;;;;;;;;;5071376;28;20045;-68
2023/12/16 05:25:01;;;;;;;8.70;5.40;;;;;;;;;;5071880;28;20052;-67
2023/12/16 05:27:28;;;;;;;7.85;5.40;;;;;;;;;;5072036;28;20507;-67
2023/12/16 05:29:54;;;;;;;7.43;5.22;;;;;;;;;;5072098;28;20067;-67
2023/12/16 05:32:22;;;;;;;9.77;5.72;;;;;;;;;;5071255;28;20087;-67
2023/12/16 05:34:50;;;;;;;10.63;5.90;;;;;;;;;;5067669;28;20047;-67
2023/12/16 05:37:16;;;;;;;10.07;5.72;;;;;;;;;;5070824;28;20127;-67
2023/12/16 05:39:43;;;;;;;13.10;5.40;;;;;;;;;;5071690;28;20063;-67
2023/12/16 05:42:10;;;;;;;9.57;6.05;;;;;;;;;;5071200;28;20044;-67
2023/12/16 05:44:37;;;;;;;10.95;6.13;;;;;;;;;;5071588;28;20045;-67
2023/12/16 05:47:04;;;;;;;9.63;5.68;;;;;;;;;;5071514;28;20507;-67
2023/12/16 05:50:22;;;;;;;9.32;5.00;;;;;;;;;;5071490;28;20054;-67
2023/12/16 05:52:50;;;;;;;9.25;5.63;;;;;;;;;;5057310;28;20049;-68
2023/12/16 05:55:16;;;;;;;9.38;5.00;;;;;;;;;;5067861;28;20142;-67
2023/12/16 05:57:43;;;;;;;7.25;4.93;;;;;;;;;;5060059;28;20132;-67
2023/12/16 06:00:10;;;;;;;12.18;5.60;;;;;;;;;;5062281;28;20053;-67
2023/12/16 06:02:36;;;;;;;8.13;4.70;;;;;;;;;;5070910;28;20136;-67
2023/12/16 06:05:03;;;;;;;9.07;4.43;;;;;;;;;;5066452;28;20124;-67
2023/12/16 06:07:30;;;;;;;9.55;5.05;;;;;;;;;;5071359;28;20387;-67
2023/12/16 06:09:58;;;;;;;6.30;4.30;;;;;;;;;;5059461;28;20149;-67
2023/12/16 06:12:24;;;;;;;8.77;4.55;;;;;;;;;;5058354;28;20067;-67
2023/12/16 06:14:51;;;;;;;9.85;4.50;;;;;;;;;;5056638;28;20480;-67
2023/12/16 06:17:17;;;;;;;7.30;4.55;;;;;;;;;;5067513;28;20129;-68
2023/12/16 06:19:44;;;;;;;6.70;4.40;;;;;;;;;;5056912;28;20469;-68
2023/12/16 06:22:10;;;;;;;6.07;3.78;;;;;;;;;;5066034;28;20131;-67
2023/12/16 06:24:37;;;;;;;9.20;4.03;;;;;;;;;;5067912;28;20572;-67
2023/12/16 06:27:05;;;;;;;10.20;4.13;;;;;;;;;;5063293;28;20497;-67
2023/12/16 06:29:32;;;;;;;7.70;4.30;;;;;;;;;;5062160;28;20480;-67
2023/12/16 06:31:59;;;;;;;9.13;4.63;;;;;;;;;;5066478;28;20488;-67
2023/12/16 06:34:25;;;;;;;9.73;4.63;;;;;;;;;;5061399;28;20259;-67
2023/12/16 06:36:52;;;;;;;7.13;4.97;;;;;;;;;;5062341;28;20047;-67
2023/12/16 06:39:18;;;;;;;10.85;4.25;;;;;;;;;;5064365;28;20051;-68
2023/12/16 06:41:45;;;;;;;9.55;4.18;;;;;;;;;;5060775;28;20045;-67
2023/12/16 06:44:13;;;;;;;8.07;4.40;;;;;;;;;;5067260;28;20060;-67
2023/12/16 06:46:39;;;;;;;6.93;3.85;;;;;;;;;;5058018;28;20060;-67
2023/12/16 06:49:06;;;;;;;9.82;4.00;;;;;;;;;;5062936;28;20139;-67
2023/12/16 06:51:33;;;;;;;8.88;4.30;;;;;;;;;;5060665;28;20044;-67
2023/12/16 06:53:59;;;;;;;7.68;3.97;;;;;;;;;;5065412;28;20044;-67
2023/12/16 06:56:26;;;;;;;8.25;4.63;;;;;;;;;;5063746;28;20536;-67
2023/12/16 06:58:52;;;;;;;6.43;3.92;;;;;;;;;;5056185;28;20135;-67
2023/12/16 07:01:22;;;;;;;6.82;3.95;;;;;;;;;;5059148;28;20079;-67
2023/12/16 07:03:49;;;;;;;6.70;4.50;;;;;;;;;;5067106;28;20103;-67
2023/12/16 07:06:19;;;;;;;7.93;4.40;;;;;;;;;;5063268;28;20567;-67
2023/12/16 07:08:45;;;;;;;7.22;4.05;;;;;;;;;;5062927;28;20487;-67
2023/12/16 07:11:12;;;;;;;7.20;3.88;;;;;;;;;;5061019;28;20138;-67
2023/12/16 07:13:39;;;;;;;6.18;4.28;;;;;;;;;;5066585;28;20047;-67
2023/12/16 07:16:06;;;;;;;7.45;4.25;;;;;;;;;;5063514;28;20087;-67
2023/12/16 07:18:34;;;;;;;9.35;4.60;;;;;;;;;;5065796;28;20075;-67
2023/12/16 07:21:05;;;;;;;7.60;4.82;;;;;;;;;;5070543;28;20132;-67
2023/12/16 07:23:33;;;;;;;8.00;4.55;;;;;;;;;;5065094;28;20143;-67
2023/12/16 07:26:00;;;;;;;6.97;3.78;;;;;;;;;;5064773;28;20040;-67
2023/12/16 07:28:26;;;;;;;7.38;4.10;;;;;;;;;;5066671;28;20543;-67
2023/12/16 07:30:53;;;;;;;7.13;4.45;;;;;;;;;;5059500;28;20125;-68
2023/12/16 07:33:19;;;;;;;7.90;4.53;;;;;;;;;;5063931;28;20045;-67
2023/12/16 07:35:47;;;;;;;7.65;4.28;;;;;;;;;;5063987;28;20294;-67
2023/12/16 07:38:14;;;;;;;10.43;4.03;;;;;;;;;;5059417;28;20530;-67
2023/12/16 07:40:41;;;;;;;7.70;3.72;;;;;;;;;;5070053;28;20543;-67
2023/12/16 07:43:07;;;;;;;5.93;3.65;;;;;;;;;;5060752;28;20555;-67
2023/12/16 07:45:34;;;;;;;7.43;3.53;;;;;;;;;;5065193;28;20047;-68
2023/12/16 07:48:01;;;;;;;5.88;3.15;;;;;;;;;;5066480;28;20055;-67
2023/12/16 07:50:28;;;;;;;6.25;3.22;;;;;;;;;;5063193;28;20098;-67
2023/12/16 07:52:55;;;;;;;6.40;3.22;;;;;;;;;;5070068;28;20048;-67
2023/12/16 07:55:23;;;;;;;3.67;2.80;;;;;;;;;;5073635;28;20412;-67
2023/12/16 07:57:50;;;;;;;7.30;3.90;;;;;;;;;;5069371;28;20048;-68
2023/12/16 08:00:17;;;;;;;4.97;3.45;;;;;;;;;;5073683;28;20127;-67
2023/12/16 08:02:43;;;;;;;8.40;3.45;;;;;;;;;;5072874;28;20139;-67
2023/12/16 08:05:10;;;;;;;7.38;3.58;;;;;;;;;;5073657;28;20516;-68
2023/12/16 08:07:37;;;;;;;6.20;3.55;;;;;;;;;;5073431;28;20262;-67
2023/12/16 08:10:06;;;;;;;9.20;3.92;;;;;;;;;;5073404;28;20041;-68
2023/12/16 08:12:33;;;;;;;5.60;3.40;;;;;;;;;;5068578;28;20131;-67
2023/12/16 08:15:02;;;;;;;7.57;3.45;;;;;;;;;;5073089;28;20055;-68
2023/12/16 08:17:28;;;;;;;6.78;3.47;;;;;;;;;;5073221;28;20158;-67
2023/12/16 08:19:55;;;;;;;5.38;3.80;;;;;;;;;;5068669;28;20128;-68
2023/12/16 08:22:22;;;;;;;6.15;4.10;;;;;;;;;;5072868;28;20083;-67
2023/12/16 08:24:48;;;;;;;8.30;4.95;;;;;;;;;;5072981;28;20458;-67
2023/12/16 08:27:16;;;;;;;9.50;5.15;;;;;;;;;;5073199;28;20057;-68
2023/12/16 08:29:45;;;;;;;13.75;5.68;;;;;;;;;;5073167;28;20078;-68
2023/12/16 08:32:12;;;;;;;10.52;5.93;;;;;;;;;;5070554;28;20452;-68
2023/12/16 08:34:38;;;;;;;17.65;7.15;;;;;;;;;;5072310;28;20094;-67
2023/12/16 08:37:05;;;;;;;11.07;5.78;;;;;;;;;;5072798;28;20055;-67
2023/12/16 08:39:31;;;;;;;23.75;9.82;;;;;;;;;;5072874;28;20135;-68
2023/12/16 08:41:58;;;;;;;16.05;7.63;;;;;;;;;;5072380;28;20132;-68
2023/12/16 08:44:26;;;;;;;12.25;6.50;;;;;;;;;;5072834;28;20499;-68
2023/12/16 08:46:53;;;;;;;14.95;6.47;;;;;;;;;;5072620;28;20083;-67
2023/12/16 08:49:19;;;;;;;14.25;6.70;;;;;;;;;;5069437;28;20102;-67
2023/12/16 08:51:47;;;;;;;13.55;6.85;;;;;;;;;;5068746;28;20044;-67
2023/12/16 08:54:14;;;;;;;11.95;7.13;;;;;;;;;;5073086;28;20078;-67
2023/12/16 08:56:40;;;;;;;12.57;5.80;;;;;;;;;;5071654;28;20124;-67
2023/12/16 08:59:07;;;;;;;12.30;6.07;;;;;;;;;;5072566;28;20123;-67
2023/12/16 09:01:35;;;;;;;12.48;5.85;;;;;;;;;;5072013;28;20083;-67
2023/12/16 09:04:02;;;;;;;9.80;5.35;;;;;;;;;;5072436;28;20132;-67
2023/12/16 09:06:28;;;;;;;11.60;5.25;;;;;;;;;;5068671;28;20058;-67
2023/12/16 09:08:55;;;;;;;9.57;5.85;;;;;;;;;;5072316;28;20047;-67
2023/12/16 09:11:21;;;;;;;9.77;5.45;;;;;;;;;;5071165;28;20044;-68
2023/12/16 09:13:48;;;;;;;8.52;5.70;;;;;;;;;;5068918;28;20054;-68
2023/12/16 09:16:14;;;;;;;12.52;6.00;;;;;;;;;;5072168;28;20583;-68
2023/12/16 09:18:42;;;;;;;12.35;5.55;;;;;;;;;;5072062;28;20045;-67
2023/12/16 09:21:09;;;;;;;11.68;6.20;;;;;;;;;;5071466;28;20127;-67
2023/12/16 09:23:36;;;;;;;7.63;5.20;;;;;;;;;;5071865;28;20076;-67
2023/12/16 09:26:03;;;;;;;8.27;5.13;;;;;;;;;;5071867;28;20052;-68
2023/12/16 09:28:30;;;;;;;10.75;5.72;;;;;;;;;;5072228;28;20539;-68
2023/12/16 09:30:56;;;;;;;10.43;5.43;;;;;;;;;;5071536;28;20508;-68
2023/12/16 09:33:23;;;;;;;10.52;4.82;;;;;;;;;;5071359;28;20411;-68
2023/12/16 09:35:51;;;;;;;9.95;5.15;;;;;;;;;;5071673;28;20131;-68
2023/12/16 09:38:17;;;;;;;9.00;5.82;;;;;;;;;;5072009;28;20050;-68
2023/12/16 09:40:44;;;;;;;12.55;5.70;;;;;;;;;;5071242;28;20127;-68
2023/12/16 09:43:16;;;;;;;10.55;6.78;;;;;;;;;;5071918;28;20044;-68
2023/12/16 09:45:46;;;;;;;10.80;5.90;;;;;;;;;;5071466;28;20496;-68
2023/12/16 09:48:15;;;;;;;11.20;5.35;;;;;;;;;;5071844;28;20068;-68
2023/12/16 09:50:42;;;;;;;12.00;5.40;;;;;;;;;;5071417;28;20041;-67
2023/12/16 09:53:10;;;;;;;8.38;5.05;;;;;;;;;;5071399;28;20131;-68
2023/12/16 09:55:37;;;;;;;13.77;6.03;;;;;;;;;;5071398;28;20055;-67
2023/12/16 09:58:05;;;;;;;10.82;5.55;;;;;;;;;;5070632;28;20234;-68
2023/12/16 10:00:32;;;;;;;11.90;5.38;;;;;;;;;;5070853;28;20415;-68
2023/12/16 10:03:00;;;;;;;11.60;5.65;;;;;;;;;;5071386;28;20051;-68
2023/12/16 10:05:28;;;;;;;11.80;7.13;;;;;;;;;;5071161;28;20075;-67
2023/12/16 10:07:58;;;;;;;11.35;6.05;;;;;;;;;;5071284;28;20072;-68
2023/12/16 10:10:26;;;;;;;12.38;5.60;;;;;;;;;;5066844;28;20044;-67
2023/12/16 10:12:55;;;;;;;12.98;7.88;;;;;;;;;;5071162;28;20140;-67
2023/12/16 10:15:32;;;;;;;10.48;6.30;;;;;;;;;;5067983;28;20560;-67
2023/12/16 10:18:01;;;;;;;12.57;6.60;;;;;;;;;;5068306;28;20511;-67
2023/12/16 10:20:28;;;;;;;9.65;5.78;;;;;;;;;;5071061;28;20412;-67
2023/12/16 10:22:54;;;;;;;11.23;5.63;;;;;;;;;;5066741;28;20140;-67
2023/12/16 10:25:22;;;;;;;15.77;6.75;;;;;;;;;;5067990;28;20412;-67
2023/12/16 10:27:50;;;;;;;13.45;6.60;;;;;;;;;;5070961;28;20048;-67
2023/12/16 10:30:16;;;;;;;13.98;6.65;;;;;;;;;;5071182;28;20040;-67
2023/12/16 10:32:43;;;;;;;12.52;5.75;;;;;;;;;;5071054;28;20095;-68
2023/12/16 10:35:10;;;;;;;8.50;4.78;;;;;;;;;;5070892;28;20131;-68
2023/12/16 10:37:48;;;;;;;10.20;4.38;;;;;;;;;;5067516;28;20080;-68
2023/12/16 10:40:15;;;;;;;9.43;3.97;;;;;;;;;;5070762;28;20423;-71
2023/12/16 10:42:42;;;;;;;8.25;4.00;;;;;;;;;;5070631;28;20044;-68
2023/12/16 10:45:11;;;;;;;12.93;3.92;;;;;;;;;;5070877;28;20053;-69
2023/12/16 10:47:39;;;;;;;8.95;4.20;;;;;;;;;;5070421;28;20722;-69
2023/12/16 10:50:07;;;;;;;10.07;3.78;;;;;;;;;;5067671;28;20080;-69
2023/12/16 10:52:38;;;;;;;5.72;3.47;;;;;;;;;;5067676;28;20080;-69
2023/12/16 10:55:07;;;;;;;8.07;3.75;;;;;;;;;;5074995;28;20055;-68
2023/12/16 10:57:42;;;;;;;7.07;3.63;;;;;;;;;;5075147;28;20049;-68
2023/12/16 11:00:14;;;;;;;9.82;4.15;;;;;;;;;;5075169;28;20484;-68
2023/12/16 11:02:54;;;;;;;9.68;3.50;;;;;;;;;;5074695;28;20040;-68
2023/12/16 11:05:28;;;;;;;8.30;4.00;;;;;;;;;;5071634;28;20515;-68
2023/12/16 11:07:56;;;;;;;12.52;3.75;;;;;;;;;;5071013;28;20386;-69
2023/12/16 11:10:23;;;;;;;9.00;4.20;;;;;;;;;;5071660;28;20079;-68
2023/12/16 11:12:52;;;;;;;9.10;4.00;;;;;;;;;;5070581;28;20049;-69
2023/12/16 11:15:20;;;;;;;10.18;4.10;;;;;;;;;;5074783;28;20055;-69
2023/12/16 11:17:53;;;;;;;11.65;4.10;;;;;;;;;;5074516;28;20044;-68
2023/12/16 11:20:21;;;;;;;;;;;;;;;;;;5071969;28;20131;-68
2023/12/16 11:22:50;;;;;;;6.53;3.20;;;;;;;;;;5074222;28;20008;-68
2023/12/16 11:25:18;;;;;;;10.50;5.68;;;;;;;;;;5074460;28;20048;-68
2023/12/16 11:27:47;;;;;;;8.68;3.60;;;;;;;;;;5073954;28;20049;-69
2023/12/16 11:30:14;;;;;;;16.90;9.18;;;;;;;;;;5073403;28;20139;-68
2023/12/16 11:32:45;;;;;;;12.70;6.40;;;;;;;;;;5074346;28;20551;-68
2023/12/16 11:35:12;;;;;;;12.77;4.25;;;;;;;;;;5072274;28;20041;-69
2023/12/16 11:37:46;;;;;;;6.47;2.10;;;;;;;;;;5073319;28;20080;-68
2023/12/16 11:40:42;;;;;;;5.75;2.50;;;;;;;;;;5074169;28;20044;-69
2023/12/16 11:43:09;;;;;;;7.13;2.30;;;;;;;;;;5072707;28;20059;-68
2023/12/16 11:45:37;;;;;;;7.15;2.38;;;;;;;;;;5074018;28;20044;-69
2023/12/16 11:48:05;;;;;;;6.10;2.30;;;;;;;;;;5074282;28;20040;-68
2023/12/16 11:50:34;;;;;;;9.38;2.42;;;;;;;;;;5062818;28;20071;-68
2023/12/16 11:53:01;;;;;;;4.20;2.58;;;;;;;;;;5074511;28;20407;-68
2023/12/16 11:55:27;;;;;;;6.88;2.40;;;;;;;;;;5063445;28;20544;-68
2023/12/16 11:57:54;;;;;;;9.82;3.80;;;;;;;;;;5070818;28;20074;-68
2023/12/16 12:00:22;;;;;;;11.60;3.60;;;;;;;;;;5067690;28;20488;-68
2023/12/16 12:02:49;;;;;;;7.60;3.15;;;;;;;;;;5074030;28;20485;-68
2023/12/16 12:05:18;;;;;;;7.93;2.88;;;;;;;;;;5069728;28;20053;-68
2023/12/16 12:07:45;;;;;;;8.55;3.30;;;;;;;;;;5069540;28;20492;-68
2023/12/16 12:10:12;;;;;;;8.85;3.28;;;;;;;;;;5072989;28;20520;-68
2023/12/16 12:12:39;;;;;;;8.52;2.72;;;;;;;;;;5069575;28;20139;-68
2023/12/16 12:15:07;;;;;;;7.88;2.67;;;;;;;;;;5062739;28;20045;-68
2023/12/16 12:17:33;;;;;;;11.50;3.72;;;;;;;;;;5067347;28;20102;-68
2023/12/16 12:20:00;;;;;;;10.45;3.83;;;;;;;;;;5073668;28;20072;-68
2023/12/16 12:22:28;;;;;;;6.75;2.83;;;;;;;;;;5069246;28;20135;-68
2023/12/16 12:24:55;;;;;;;9.32;2.95;;;;;;;;;;5069593;28;20131;-68
2023/12/16 12:27:22;;;;;;;8.10;2.55;;;;;;;;;;5067711;28;20041;-68
2023/12/16 12:29:54;;;;;;;9.32;2.95;;;;;;;;;;5061788;28;20550;-68
2023/12/16 12:32:20;;;;;;;8.13;3.28;;;;;;;;;;5066421;28;20041;-68
2023/12/16 12:34:57;;;;;;;9.10;2.95;;;;;;;;;;5064856;28;20488;-68
2023/12/16 12:37:23;;;;;;;5.40;2.38;;;;;;;;;;5069769;28;20048;-68
2023/12/16 12:39:51;;;;;;;8.55;2.58;;;;;;;;;;5069274;28;20132;-68
2023/12/16 12:42:18;;;;;;;10.23;3.50;;;;;;;;;;5069479;28;20045;-68
2023/12/16 12:44:52;;;;;;;11.27;4.50;;;;;;;;;;5072241;28;20076;-68
2023/12/16 12:47:27;;;;;;;10.65;3.80;;;;;;;;;;5070062;28;20048;-68
2023/12/16 12:49:54;;;;;;;9.63;2.60;;;;;;;;;;5062331;28;20052;-68
2023/12/16 12:52:21;;;;;;;5.20;2.20;;;;;;;;;;5063033;28;20415;-68
2023/12/16 12:54:47;;;;;;;6.40;2.53;;;;;;;;;;5069127;28;20041;-68
2023/12/16 12:57:21;;;;;;;6.30;2.95;;;;;;;;;;5066356;28;20044;-68
2023/12/16 12:59:48;;;;;;;4.38;2.60;;;;;;;;;;5072595;28;20087;-68
2023/12/16 13:02:14;;;;;;;6.90;2.55;;;;;;;;;;5069529;28;20116;-70
2023/12/16 13:04:44;;;;;;;7.68;2.85;;;;;;;;;;5064031;28;20147;-68
2023/12/16 13:07:10;;;;;;;7.03;2.45;;;;;;;;;;5064786;28;20456;-68
2023/12/16 13:09:38;;;;;;;11.10;2.70;;;;;;;;;;5068323;28;20076;-68
2023/12/16 13:12:05;;;;;;;5.10;2.38;;;;;;;;;;5069391;28;20429;-68
2023/12/16 13:14:33;;;;;;;6.03;2.22;;;;;;;;;;5070742;28;20132;-68
2023/12/16 13:17:00;;;;;;;10.30;2.42;;;;;;;;;;5064849;28;20139;-68
2023/12/16 13:19:26;;;;;;;6.65;2.97;;;;;;;;;;5072147;28;20150;-68
2023/12/16 13:21:53;;;;;;;6.88;2.30;;;;;;;;;;5069115;28;20132;-68
2023/12/16 13:24:20;;;;;;;6.65;2.03;;;;;;;;;;5072411;28;20048;-68
2023/12/16 13:26:46;;;;;;;6.78;2.30;;;;;;;;;;5072350;28;20126;-68
2023/12/16 13:29:13;;;;;;;4.50;1.80;;;;;;;;;;5072264;28;20048;-68
2023/12/16 13:31:42;;;;;;;4.10;1.80;;;;;;;;;;5072136;28;20136;-68
2023/12/16 13:34:10;;;;;;;8.50;2.85;;;;;;;;;;5067846;28;20440;-68
2023/12/16 13:36:36;;;;;;;7.63;2.65;;;;;;;;;;5057013;28;20053;-68
2023/12/16 13:39:03;;;;;;;8.73;2.30;;;;;;;;;;5064549;28;20076;-68
2023/12/16 13:41:30;;;;;;;8.07;2.53;;;;;;;;;;5059984;28;20049;-68
2023/12/16 13:43:57;;;;;;;14.35;5.75;;;;;;;;;;5072180;28;20055;-68
2023/12/16 13:46:23;;;;;;;8.75;2.38;;;;;;;;;;5068800;28;20132;-68
2023/12/16 13:48:51;;;;;;;7.55;4.32;;;;;;;;;;5063651;28;20581;-68
2023/12/16 13:51:18;;;;;;;6.63;2.28;;;;;;;;;;5067688;28;20040;-68
2023/12/16 13:53:44;;;;;;;7.88;3.28;;;;;;;;;;5067038;28;20435;-68
2023/12/16 13:56:11;;;;;;;7.50;2.90;;;;;;;;;;5061328;28;20131;-68
2023/12/16 13:58:40;;;;;;;7.97;2.80;;;;;;;;;;5068629;28;20049;-68
2023/12/16 14:01:07;;;;;;;7.50;2.72;;;;;;;;;;5072095;28;20488;-68
2023/12/16 14:03:33;;;;;;;6.78;2.78;;;;;;;;;;5070525;28;20131;-68
2023/12/16 14:06:02;;;;;;;8.65;2.65;;;;;;;;;;5064203;28;20151;-68
2023/12/16 14:08:30;;;;;;;10.45;4.18;;;;;;;;;;5070375;28;20059;-68
2023/12/16 14:10:57;;;;;;;8.10;3.25;;;;;;;;;;5068502;28;20527;-68
2023/12/16 14:13:23;;;;;;;10.77;3.00;;;;;;;;;;5067363;28;20132;-68
2023/12/16 14:15:50;;;;;;;7.45;3.38;;;;;;;;;;5068269;28;20046;-68
2023/12/16 14:18:16;;;;;;;9.93;2.72;;;;;;;;;;5071422;28;20431;-68
2023/12/16 14:20:43;;;;;;;10.05;3.50;;;;;;;;;;5063593;28;20124;-68
2023/12/16 14:23:12;;;;;;;11.77;4.20;;;;;;;;;;5069786;28;20040;-68
2023/12/16 14:25:41;;;;;;;30.23;12.32;;;;;;;;;;5069438;28;20048;-68
2023/12/16 14:28:08;;;;;;;14.18;4.28;;;;;;;;;;5066458;28;20131;-68
2023/12/16 14:30:34;;;;;;;6.97;2.85;;;;;;;;;;5070533;28;20339;-68
2023/12/16 14:33:02;;;;;;;7.90;2.58;;;;;;;;;;5066524;28;20053;-68
2023/12/16 14:35:29;;;;;;;5.60;2.70;;;;;;;;;;5068210;28;20087;-68
2023/12/16 14:37:56;;;;;;;13.43;4.82;;;;;;;;;;5071738;28;20576;-68
2023/12/16 14:40:27;;;;;;;11.27;4.40;;;;;;;;;;5071470;28;20063;-68
2023/12/16 14:42:53;;;;;;;11.65;4.20;;;;;;;;;;5067499;28;20131;-68
2023/12/16 14:45:21;;;;;;;11.73;5.20;;;;;;;;;;5071263;28;20075;-68